createdAt,value
2023-11-23T00:01:00.008Z,1.12
2023-11-23T00:03:27.355Z,1.01
2023-11-23T00:05:55.190Z,0.90
2023-11-23T00:08:22.509Z,1.01
2023-11-23T00:10:50.948Z,0.34
2023-11-23T00:13:18.378Z,0.81
2023-11-23T00:15:45.762Z,1.17
2023-11-23T00:18:15.254Z,0.96
2023-11-23T00:20:42.767Z,0.65
2023-11-23T00:23:10.226Z,1.16
2023-11-23T00:25:37.537Z,0.65
2023-11-23T00:28:05.225Z,1.00
2023-11-23T00:30:33.078Z,1.23
2023-11-23T00:33:00.859Z,0.03
2023-11-23T00:35:28.235Z,1.26
2023-11-23T00:38:00.207Z,1.19
2023-11-23T00:40:27.617Z,1.53
2023-11-23T00:42:54.995Z,0.88
2023-11-23T00:45:22.434Z,1.54
2023-11-23T00:47:49.992Z,1.57
2023-11-23T00:50:17.444Z,1.75
2023-11-23T00:52:44.842Z,1.53
2023-11-23T00:55:12.531Z,1.44
2023-11-23T00:57:40.051Z,1.47
2023-11-23T01:00:09.558Z,1.77
2023-11-23T01:02:38.618Z,1.23
2023-11-23T01:05:06.745Z,1.18
2023-11-23T01:07:35.688Z,1.26
2023-11-23T01:10:03.177Z,1.68
2023-11-23T01:12:30.594Z,2.11
2023-11-23T01:14:57.993Z,1.53
2023-11-23T01:17:25.520Z,1.57
2023-11-23T01:19:52.849Z,1.41
2023-11-23T01:22:20.351Z,1.67
2023-11-23T01:24:47.821Z,2.03
2023-11-23T01:27:15.155Z,1.70
2023-11-23T01:29:42.486Z,1.74
2023-11-23T01:32:10.192Z,1.73
2023-11-23T01:34:37.538Z,1.66
2023-11-23T01:37:05.118Z,1.73
2023-11-23T01:39:32.452Z,1.50
2023-11-23T01:42:00.658Z,1.58
2023-11-23T01:44:28.512Z,1.35
2023-11-23T01:46:55.991Z,2.02
2023-11-23T01:49:24.587Z,1.78
2023-11-23T01:51:51.974Z,1.84
2023-11-23T01:54:19.880Z,1.81
2023-11-23T01:56:52.156Z,1.78
2023-11-23T01:59:19.740Z,1.60
2023-11-23T02:01:47.188Z,1.98
2023-11-23T02:04:14.730Z,2.05
2023-11-23T02:06:42.096Z,1.97
2023-11-23T02:09:10.210Z,2.14
2023-11-23T02:11:38.050Z,1.86
2023-11-23T02:14:08.088Z,2.28
2023-11-23T02:16:35.881Z,2.24
2023-11-23T02:19:03.692Z,1.70
2023-11-23T02:21:31.649Z,2.05
2023-11-23T02:23:59.058Z,2.19
2023-11-23T02:26:26.412Z,2.66
2023-11-23T02:28:53.708Z,2.43
2023-11-23T02:31:21.115Z,2.52
2023-11-23T02:33:48.573Z,2.66
2023-11-23T02:36:16.056Z,2.51
2023-11-23T02:38:43.506Z,2.41
2023-11-23T02:41:14.244Z,2.42
2023-11-23T02:43:41.806Z,2.55
2023-11-23T02:46:09.260Z,2.83
2023-11-23T02:48:36.825Z,2.86
2023-11-23T02:51:04.440Z,2.44
2023-11-23T02:53:34.127Z,2.83
2023-11-23T02:56:01.569Z,2.71
2023-11-23T02:58:30.055Z,2.87
2023-11-23T03:00:57.448Z,2.97
2023-11-23T03:03:24.945Z,2.95
2023-11-23T03:05:52.471Z,2.63
2023-11-23T03:08:19.859Z,2.84
2023-11-23T03:10:47.223Z,2.78
2023-11-23T03:13:14.626Z,2.63
2023-11-23T03:15:41.908Z,2.96
2023-11-23T03:18:11.899Z,3.15
2023-11-23T03:20:40.948Z,3.47
2023-11-23T03:23:08.735Z,3.24
2023-11-23T03:25:36.150Z,3.09
2023-11-23T03:28:04.897Z,3.55
2023-11-23T03:30:32.557Z,3.80
2023-11-23T03:33:00.002Z,3.69
2023-11-23T03:35:27.383Z,3.68
2023-11-23T03:37:54.769Z,3.86
2023-11-23T03:40:22.218Z,3.27
2023-11-23T03:42:49.618Z,3.58
2023-11-23T03:45:17.088Z,3.70
2023-11-23T03:47:44.557Z,3.80
2023-11-23T03:50:11.993Z,3.78
2023-11-23T03:52:39.942Z,3.49
2023-11-23T03:55:09.741Z,3.98
2023-11-23T03:57:42.045Z,3.55
2023-11-23T04:00:10.489Z,3.57
2023-11-23T04:02:38.051Z,3.77
2023-11-23T04:05:06.476Z,4.06
2023-11-23T04:07:33.927Z,3.86
2023-11-23T04:10:01.440Z,3.92
2023-11-23T04:12:30.071Z,4.00
2023-11-23T04:14:58.189Z,4.12
2023-11-23T04:17:25.665Z,4.52
2023-11-23T04:19:56.432Z,4.36
2023-11-23T04:22:23.863Z,3.90
2023-11-23T04:24:51.746Z,4.37
2023-11-23T04:27:20.312Z,3.94
2023-11-23T04:29:49.539Z,3.89
2023-11-23T04:32:17.163Z,4.33
2023-11-23T04:34:44.774Z,3.97
2023-11-23T04:37:14.943Z,4.33
2023-11-23T04:39:42.295Z,4.19
2023-11-23T04:42:09.674Z,4.32
2023-11-23T04:44:37.125Z,4.74
2023-11-23T04:47:05.093Z,4.49
2023-11-23T04:49:35.103Z,4.83
2023-11-23T04:52:02.564Z,4.46
2023-11-23T04:54:30.023Z,4.59
2023-11-23T04:56:57.461Z,4.84
2023-11-23T04:59:27.749Z,4.79
2023-11-23T05:01:56.204Z,4.91
2023-11-23T05:04:23.636Z,4.86
2023-11-23T05:06:51.516Z,4.54
2023-11-23T05:09:23.278Z,4.45
2023-11-23T05:11:50.794Z,4.72
2023-11-23T05:14:21.671Z,4.44
2023-11-23T05:16:51.658Z,5.05
2023-11-23T05:19:31.645Z,4.69
2023-11-23T05:22:17.216Z,4.72
2023-11-23T05:24:44.791Z,5.10
2023-11-23T05:27:12.659Z,5.01
2023-11-23T05:29:40.087Z,4.50
2023-11-23T05:32:08.281Z,5.01
2023-11-23T05:34:35.808Z,4.95
2023-11-23T05:37:03.141Z,5.15
2023-11-23T05:39:30.994Z,4.89
2023-11-23T05:41:58.500Z,4.87
2023-11-23T05:44:26.584Z,5.15
2023-11-23T05:46:59.471Z,5.19
2023-11-23T05:49:29.545Z,5.06
2023-11-23T05:51:56.999Z,4.96
2023-11-23T05:54:24.735Z,5.02
2023-11-23T05:56:55.070Z,5.33
2023-11-23T05:59:22.641Z,5.33
2023-11-23T06:01:50.515Z,5.40
2023-11-23T06:04:19.332Z,5.02
2023-11-23T06:06:46.738Z,4.85
2023-11-23T06:09:14.213Z,5.49
2023-11-23T06:11:42.068Z,5.43
2023-11-23T06:14:09.872Z,5.11
2023-11-23T06:16:37.283Z,5.57
2023-11-23T06:19:04.697Z,5.55
2023-11-23T06:21:32.618Z,5.78
2023-11-23T06:24:01.976Z,5.63
2023-11-23T06:26:29.391Z,5.68
2023-11-23T06:29:01.258Z,5.53
2023-11-23T06:31:29.240Z,5.15
2023-11-23T06:33:56.644Z,5.65
2023-11-23T06:36:24.634Z,5.96
2023-11-23T06:38:55.329Z,5.90
2023-11-23T06:41:24.245Z,5.54
2023-11-23T06:43:56.687Z,5.67
2023-11-23T06:46:24.343Z,5.41
2023-11-23T06:48:52.408Z,5.77
2023-11-23T06:51:22.856Z,5.80
2023-11-23T06:53:50.578Z,5.54
2023-11-23T06:56:18.646Z,5.42
2023-11-23T06:58:48.105Z,5.33
2023-11-23T07:01:19.860Z,5.25
2023-11-23T07:03:50.284Z,5.34
2023-11-23T07:06:19.669Z,5.51
2023-11-23T07:08:47.386Z,5.56
2023-11-23T07:11:19.799Z,5.76
2023-11-23T07:13:49.233Z,5.83
2023-11-23T07:16:17.700Z,5.01
2023-11-23T07:18:45.701Z,5.33
2023-11-23T07:21:14.686Z,5.52
2023-11-23T07:23:45.996Z,5.22
2023-11-23T07:26:14.125Z,5.77
2023-11-23T07:28:45.000Z,5.80
2023-11-23T07:31:14.215Z,5.92
2023-11-23T07:33:41.803Z,5.75
2023-11-23T07:36:10.272Z,6.16
2023-11-23T07:38:38.154Z,5.96
2023-11-23T07:41:08.075Z,5.82
2023-11-23T07:43:35.830Z,6.38
2023-11-23T07:46:09.668Z,5.90
2023-11-23T07:48:42.139Z,5.80
2023-11-23T07:51:24.342Z,6.47
2023-11-23T07:53:51.937Z,5.98
2023-11-23T07:56:28.278Z,6.10
2023-11-23T07:58:56.361Z,6.28
2023-11-23T08:01:32.489Z,6.41
2023-11-23T08:04:05.184Z,6.52
2023-11-23T08:06:34.390Z,6.37
2023-11-23T08:09:28.231Z,6.11
2023-11-23T08:14:58.495Z,6.23
2023-11-23T08:17:30.068Z,6.04
2023-11-23T08:20:36.185Z,6.56
2023-11-23T08:23:10.899Z,6.07
2023-11-23T08:25:45.450Z,5.99
2023-11-23T08:28:14.926Z,6.09
2023-11-23T08:30:49.552Z,6.47
2023-11-23T08:33:28.933Z,6.37
2023-11-23T08:35:58.442Z,6.29
2023-11-23T08:38:33.117Z,5.99
2023-11-23T08:41:12.109Z,6.31
2023-11-23T08:43:42.672Z,6.24
2023-11-23T08:46:16.976Z,5.82
2023-11-23T08:49:00.238Z,6.55
2023-11-23T08:51:57.568Z,6.77
2023-11-23T08:54:50.632Z,6.60
2023-11-23T08:57:22.170Z,6.51
2023-11-23T08:59:50.323Z,6.45
2023-11-23T09:02:21.835Z,6.79
2023-11-23T09:04:50.788Z,6.51
2023-11-23T09:07:19.400Z,6.60
2023-11-23T09:09:48.411Z,6.73
2023-11-23T09:12:18.596Z,6.53
2023-11-23T09:14:51.750Z,6.39
2023-11-23T09:17:27.572Z,6.78
2023-11-23T09:20:09.330Z,6.55
2023-11-23T09:22:37.822Z,6.81
2023-11-23T09:25:10.624Z,6.72
2023-11-23T09:27:38.595Z,6.79
2023-11-23T09:30:09.073Z,7.07
2023-11-23T09:32:43.459Z,6.79
2023-11-23T09:35:11.903Z,6.69
2023-11-23T09:37:40.048Z,6.93
2023-11-23T09:40:10.810Z,6.68
2023-11-23T09:42:40.402Z,7.12
2023-11-23T09:45:16.111Z,7.31
2023-11-23T09:47:44.452Z,6.89
2023-11-23T09:50:12.697Z,6.96
2023-11-23T09:52:41.519Z,6.85
2023-11-23T09:55:12.124Z,7.05
2023-11-23T09:57:39.866Z,6.87
2023-11-23T10:00:15.834Z,6.93
2023-11-23T10:02:57.432Z,7.23
2023-11-23T10:05:25.764Z,7.27
2023-11-23T10:08:01.398Z,7.16
2023-11-23T10:10:28.893Z,7.24
2023-11-23T10:12:57.508Z,7.43
2023-11-23T10:15:27.526Z,6.62
2023-11-23T10:17:55.220Z,7.58
2023-11-23T10:20:28.061Z,7.10
2023-11-23T10:22:56.967Z,7.27
2023-11-23T10:25:37.106Z,7.52
2023-11-23T10:28:06.519Z,7.62
2023-11-23T10:30:37.884Z,7.59
2023-11-23T10:33:11.753Z,7.07
2023-11-23T10:35:51.704Z,7.61
2023-11-23T10:38:25.702Z,7.34
2023-11-23T10:40:59.977Z,7.83
2023-11-23T10:43:28.597Z,7.66
2023-11-23T10:45:58.354Z,7.19
2023-11-23T10:48:26.395Z,7.19
2023-11-23T10:50:58.445Z,7.59
2023-11-23T10:53:27.547Z,7.40
2023-11-23T10:55:56.527Z,7.51
2023-11-23T10:58:24.600Z,7.52
2023-11-23T11:00:53.365Z,7.37
2023-11-23T11:03:22.364Z,7.76
2023-11-23T11:05:52.199Z,7.71
2023-11-23T11:08:22.471Z,8.00
2023-11-23T11:10:53.394Z,7.87
2023-11-23T11:13:25.474Z,7.79
2023-11-23T11:16:08.418Z,7.91
2023-11-23T11:18:37.173Z,7.48
2023-11-23T11:21:18.193Z,7.70
2023-11-23T11:23:48.818Z,7.43
2023-11-23T11:26:29.227Z,8.14
2023-11-23T11:29:07.517Z,7.45
2023-11-23T11:31:44.143Z,7.65
2023-11-23T11:34:22.573Z,7.86
2023-11-23T11:36:55.755Z,7.85
2023-11-23T11:39:23.875Z,7.92
2023-11-23T11:42:01.244Z,7.87
2023-11-23T11:44:31.621Z,8.29
2023-11-23T11:46:59.064Z,7.80
2023-11-23T11:49:28.297Z,7.96
2023-11-23T11:51:55.767Z,7.77
2023-11-23T11:54:29.256Z,8.18
2023-11-23T11:56:56.741Z,8.28
2023-11-23T11:59:30.184Z,8.39
2023-11-23T12:01:58.443Z,8.57
2023-11-23T12:04:25.955Z,8.33
2023-11-23T12:06:54.482Z,7.61
2023-11-23T12:09:34.457Z,8.53
2023-11-23T12:12:07.868Z,8.08
2023-11-23T12:14:36.429Z,8.30
2023-11-23T12:17:14.834Z,8.79
2023-11-23T12:19:58.100Z,8.16
2023-11-23T12:22:28.470Z,8.72
2023-11-23T12:24:57.794Z,9.10
2023-11-23T12:27:27.006Z,8.84
2023-11-23T12:29:55.533Z,9.14
2023-11-23T12:32:23.728Z,8.68
2023-11-23T12:34:51.288Z,8.81
2023-11-23T12:37:18.899Z,9.60
2023-11-23T12:39:56.140Z,8.94
2023-11-23T12:42:24.701Z,9.11
2023-11-23T12:44:52.285Z,8.83
2023-11-23T12:47:22.771Z,8.59
2023-11-23T12:49:50.935Z,8.94
2023-11-23T12:52:18.576Z,9.20
2023-11-23T12:54:46.917Z,8.91
2023-11-23T12:57:14.485Z,9.16
2023-11-23T12:59:41.907Z,8.64
2023-11-23T13:02:10.065Z,8.94
2023-11-23T13:04:39.024Z,9.33
2023-11-23T13:07:06.667Z,9.13
2023-11-23T13:09:35.234Z,9.37
2023-11-23T13:12:06.293Z,9.08
2023-11-23T13:14:34.564Z,9.22
2023-11-23T13:17:02.370Z,9.54
2023-11-23T13:19:37.667Z,8.81
2023-11-23T13:22:10.949Z,9.52
2023-11-23T13:24:39.956Z,9.39
2023-11-23T13:27:09.889Z,9.92
2023-11-23T13:29:41.612Z,8.86
2023-11-23T13:32:12.277Z,8.82
2023-11-23T13:34:39.985Z,9.79
2023-11-23T13:37:10.588Z,9.67
2023-11-23T13:39:41.417Z,9.53
2023-11-23T13:42:09.917Z,9.27
2023-11-23T13:44:37.447Z,9.37
2023-11-23T13:47:08.479Z,9.45
2023-11-23T13:49:36.070Z,9.91
2023-11-23T13:52:04.847Z,9.37
2023-11-23T13:54:32.330Z,9.75
2023-11-23T13:57:03.773Z,10.06
2023-11-23T13:59:31.384Z,9.78
2023-11-23T14:01:59.950Z,9.72
2023-11-23T14:04:28.504Z,9.10
2023-11-23T14:06:57.278Z,9.53
2023-11-23T14:09:32.380Z,9.91
2023-11-23T14:12:01.288Z,9.50
2023-11-23T14:14:30.897Z,8.91
2023-11-23T14:16:59.316Z,9.87
2023-11-23T14:19:26.918Z,9.91
2023-11-23T14:21:57.254Z,9.77
2023-11-23T14:24:25.622Z,9.54
2023-11-23T14:26:58.547Z,9.45
2023-11-23T14:29:25.959Z,9.33
2023-11-23T14:31:59.193Z,9.32
2023-11-23T14:34:30.411Z,9.38
2023-11-23T14:36:57.991Z,9.26
2023-11-23T14:39:29.186Z,9.65
2023-11-23T14:42:08.187Z,10.01
2023-11-23T14:44:35.754Z,9.59
2023-11-23T14:47:03.531Z,9.84
2023-11-23T14:49:32.273Z,9.56
2023-11-23T14:52:00.061Z,9.00
2023-11-23T14:54:34.828Z,9.45
2023-11-23T14:57:21.539Z,9.55
2023-11-23T14:59:52.829Z,9.84
2023-11-23T15:02:20.513Z,9.65
2023-11-23T15:04:48.390Z,9.38
2023-11-23T15:07:18.993Z,9.57
2023-11-23T15:09:46.858Z,9.74
2023-11-23T15:12:16.106Z,9.73
2023-11-23T15:14:44.007Z,9.23
2023-11-23T15:17:24.876Z,9.97
2023-11-23T15:19:52.214Z,9.10
2023-11-23T15:22:22.212Z,9.11
2023-11-23T15:24:59.943Z,9.72
2023-11-23T15:27:33.825Z,9.59
2023-11-23T15:30:01.206Z,9.69
2023-11-23T15:32:34.751Z,9.62
2023-11-23T15:35:02.816Z,9.53
2023-11-23T15:37:30.314Z,9.92
2023-11-23T15:39:57.731Z,9.61
2023-11-23T15:42:25.476Z,9.57
2023-11-23T15:44:53.278Z,10.19
2023-11-23T15:47:21.327Z,9.58
2023-11-23T15:49:48.802Z,9.99
2023-11-23T15:52:16.673Z,9.95
2023-11-23T15:54:44.783Z,9.45
2023-11-23T15:57:12.582Z,9.50
2023-11-23T15:59:40.107Z,9.64
2023-11-23T16:02:08.802Z,9.21
2023-11-23T16:04:36.141Z,9.77
2023-11-23T16:07:04.166Z,9.57
2023-11-23T16:09:31.786Z,9.93
2023-11-23T16:12:02.327Z,9.73
2023-11-23T16:14:29.683Z,9.67
2023-11-23T16:16:58.052Z,8.88
2023-11-23T16:19:29.013Z,9.74
2023-11-23T16:21:57.649Z,9.90
2023-11-23T16:24:25.408Z,9.66
2023-11-23T16:26:54.588Z,9.65
2023-11-23T16:29:22.021Z,9.61
2023-11-23T16:31:49.349Z,9.82
2023-11-23T16:34:18.246Z,9.37
2023-11-23T16:36:47.177Z,9.81
2023-11-23T16:39:17.199Z,9.70
2023-11-23T16:41:45.417Z,10.03
2023-11-23T16:44:17.364Z,9.84
2023-11-23T16:46:47.261Z,9.55
2023-11-23T16:49:16.063Z,9.89
2023-11-23T16:51:43.661Z,10.49
2023-11-23T16:54:11.149Z,9.69
2023-11-23T16:56:38.794Z,9.26
2023-11-23T16:59:11.738Z,9.94
2023-11-23T17:01:40.342Z,10.03
2023-11-23T17:04:08.092Z,10.28
2023-11-23T17:06:37.023Z,9.71
2023-11-23T17:09:06.265Z,9.80
2023-11-23T17:11:34.408Z,9.70
2023-11-23T17:14:04.545Z,10.05
2023-11-23T17:16:32.648Z,10.15
2023-11-23T17:19:00.364Z,10.37
2023-11-23T17:21:28.262Z,9.41
2023-11-23T17:23:55.768Z,10.36
2023-11-23T17:26:25.834Z,10.37
2023-11-23T17:28:55.928Z,9.92
2023-11-23T17:31:23.716Z,10.07
2023-11-23T17:33:51.500Z,10.00
2023-11-23T17:36:20.841Z,9.45
2023-11-23T17:38:49.137Z,10.20
2023-11-23T17:41:19.333Z,9.89
2023-11-23T17:43:47.951Z,9.99
2023-11-23T17:46:15.807Z,10.41
2023-11-23T17:48:43.351Z,10.00
2023-11-23T17:51:14.838Z,9.93
2023-11-23T17:53:44.150Z,10.15
2023-11-23T17:56:12.246Z,10.15
2023-11-23T17:58:39.758Z,9.93
2023-11-23T18:01:07.542Z,10.00
2023-11-23T18:03:35.512Z,10.50
2023-11-23T18:06:03.262Z,9.70
2023-11-23T18:08:30.855Z,9.74
2023-11-23T18:11:01.653Z,10.03
2023-11-23T18:13:30.320Z,9.69
2023-11-23T18:15:57.982Z,9.81
2023-11-23T18:18:25.862Z,10.03
2023-11-23T18:20:55.435Z,9.99
2023-11-23T18:23:25.667Z,9.77
2023-11-23T18:25:57.166Z,10.34
2023-11-23T18:28:25.549Z,10.44
2023-11-23T18:30:54.957Z,9.94
2023-11-23T18:33:22.914Z,8.72
2023-11-23T18:35:50.829Z,10.28
2023-11-23T18:38:18.258Z,9.65
2023-11-23T18:40:46.244Z,10.01
2023-11-23T18:43:13.642Z,9.52
2023-11-23T18:45:42.028Z,10.25
2023-11-23T18:48:09.755Z,10.03
2023-11-23T18:50:37.468Z,10.20
2023-11-23T18:53:04.940Z,10.21
2023-11-23T18:55:33.401Z,10.66
2023-11-23T18:58:00.941Z,10.11
2023-11-23T19:00:28.728Z,9.75
2023-11-23T19:02:58.896Z,10.33
2023-11-23T19:05:27.586Z,10.13
2023-11-23T19:07:55.104Z,10.22
2023-11-23T19:10:22.929Z,10.21
2023-11-23T19:12:52.925Z,10.43
2023-11-23T19:15:24.829Z,10.18
2023-11-23T19:17:54.486Z,8.83
2023-11-23T19:20:22.387Z,9.43
2023-11-23T19:22:50.507Z,8.99
2023-11-23T19:25:27.208Z,8.61
2023-11-23T19:28:01.064Z,8.35
2023-11-23T19:30:29.380Z,7.83
2023-11-23T19:32:57.470Z,7.80
2023-11-23T19:35:27.060Z,8.07
2023-11-23T19:37:58.347Z,7.78
2023-11-23T19:40:28.821Z,7.79
2023-11-23T19:42:59.429Z,7.90
2023-11-23T19:45:30.906Z,7.50
2023-11-23T19:48:00.076Z,7.99
2023-11-23T19:50:29.146Z,7.18
2023-11-23T19:53:02.002Z,7.55
2023-11-23T19:55:30.208Z,7.85
2023-11-23T19:57:57.813Z,6.50
2023-11-23T20:00:31.763Z,6.89
2023-11-23T20:03:03.728Z,7.35
2023-11-23T20:05:34.452Z,7.56
2023-11-23T20:08:05.449Z,6.97
2023-11-23T20:10:33.105Z,7.06
2023-11-23T20:13:00.770Z,7.35
2023-11-23T20:15:28.905Z,7.53
2023-11-23T20:17:58.829Z,6.70
2023-11-23T20:20:26.351Z,7.01
2023-11-23T20:22:54.034Z,6.86
2023-11-23T20:25:22.246Z,7.82
2023-11-23T20:27:49.820Z,6.89
2023-11-23T20:30:18.402Z,6.45
2023-11-23T20:32:46.048Z,7.10
2023-11-23T20:35:13.952Z,7.63
2023-11-23T20:37:41.430Z,7.71
2023-11-23T20:40:13.132Z,7.59
2023-11-23T20:42:40.731Z,7.94
2023-11-23T20:45:09.566Z,7.30
2023-11-23T20:47:37.566Z,6.88
2023-11-23T20:50:06.792Z,6.83
2023-11-23T20:52:36.907Z,7.55
2023-11-23T20:55:11.880Z,7.90
2023-11-23T20:57:41.220Z,7.66
2023-11-23T21:00:13.284Z,6.92
2023-11-23T21:02:44.428Z,7.63
2023-11-23T21:05:13.561Z,7.35
2023-11-23T21:07:41.797Z,7.05
2023-11-23T21:10:10.606Z,7.41
2023-11-23T21:12:38.025Z,6.66
2023-11-23T21:15:06.477Z,7.08
2023-11-23T21:17:35.809Z,7.86
2023-11-23T21:20:06.381Z,7.66
2023-11-23T21:22:33.763Z,8.23
2023-11-23T21:25:01.660Z,7.14
2023-11-23T21:27:38.693Z,7.70
2023-11-23T21:30:08.790Z,7.37
2023-11-23T21:32:37.280Z,8.24
2023-11-23T21:35:05.793Z,7.90
2023-11-23T21:37:33.329Z,7.44
2023-11-23T21:40:01.001Z,7.44
2023-11-23T21:42:28.628Z,7.36
2023-11-23T21:44:56.236Z,6.90
2023-11-23T21:47:24.000Z,6.23
2023-11-23T21:49:51.637Z,7.60
2023-11-23T21:52:19.648Z,7.05
2023-11-23T21:54:57.229Z,7.34
2023-11-23T21:57:30.801Z,7.46
2023-11-23T21:59:59.973Z,6.56
2023-11-23T22:02:27.577Z,7.56
2023-11-23T22:04:55.611Z,8.11
2023-11-23T22:07:27.288Z,7.11
2023-11-23T22:09:54.806Z,7.30
2023-11-23T22:12:23.919Z,6.69
2023-11-23T22:15:00.716Z,7.36
2023-11-23T22:17:28.928Z,7.56
2023-11-23T22:19:59.697Z,8.01
2023-11-23T22:22:30.814Z,6.42
2023-11-23T22:24:58.548Z,6.68
2023-11-23T22:27:27.296Z,6.73
2023-11-23T22:29:55.628Z,6.72
2023-11-23T22:32:28.905Z,7.74
2023-11-23T22:34:57.266Z,6.26
2023-11-23T22:37:25.740Z,6.32
2023-11-23T22:39:55.336Z,7.04
2023-11-23T22:42:23.843Z,6.15
2023-11-23T22:44:52.073Z,6.62
2023-11-23T22:47:20.017Z,6.23
2023-11-23T22:49:50.571Z,6.53
2023-11-23T22:52:20.476Z,5.76
2023-11-23T22:54:48.179Z,6.55
2023-11-23T22:57:15.629Z,7.01
2023-11-23T22:59:43.076Z,7.34
2023-11-23T23:02:10.644Z,6.88
2023-11-23T23:04:40.499Z,6.57
2023-11-23T23:07:09.046Z,6.25
2023-11-23T23:09:36.822Z,6.62
2023-11-23T23:12:04.770Z,6.28
2023-11-23T23:14:33.689Z,5.56
2023-11-23T23:17:02.011Z,4.72
2023-11-23T23:19:29.475Z,4.29
2023-11-23T23:21:57.301Z,4.52
2023-11-23T23:24:24.704Z,5.37
2023-11-23T23:26:52.133Z,4.66
2023-11-23T23:29:21.334Z,3.23
2023-11-23T23:31:53.345Z,2.93
2023-11-23T23:34:21.285Z,3.61
2023-11-23T23:36:49.623Z,2.64
2023-11-23T23:39:17.177Z,3.05
2023-11-23T23:41:50.674Z,2.68
2023-11-23T23:44:19.352Z,3.13
2023-11-23T23:46:47.671Z,4.40
2023-11-23T23:49:27.959Z,4.21
2023-11-23T23:51:55.415Z,4.41
2023-11-23T23:54:22.883Z,3.91
2023-11-23T23:56:50.293Z,5.06
2023-11-23T23:59:17.978Z,4.30
